createdAt,value
2022-09-24T00:02:00.947Z,15.40
2022-09-24T00:04:33.192Z,14.50
2022-09-24T00:07:05.661Z,14.30
2022-09-24T00:09:37.540Z,13.60
2022-09-24T00:12:13.109Z,14.50
2022-09-24T00:14:45.429Z,14.40
2022-09-24T00:17:17.329Z,14.20
2022-09-24T00:19:49.514Z,14.60
2022-09-24T00:22:21.316Z,14.70
2022-09-24T00:25:10.747Z,16.20
2022-09-24T00:27:42.943Z,14.30
2022-09-24T00:30:15.718Z,15.80
2022-09-24T00:32:47.563Z,14.70
2022-09-24T00:35:19.480Z,14.70
2022-09-24T00:37:51.516Z,15.20
2022-09-24T00:40:28.019Z,14.60
2022-09-24T00:43:00.256Z,14.70
2022-09-24T00:45:32.904Z,16.00
2022-09-24T00:48:04.838Z,14.10
2022-09-24T00:50:37.889Z,14.50
2022-09-24T00:53:13.339Z,15.40
2022-09-24T00:55:49.423Z,15.80
2022-09-24T00:58:23.205Z,15.10
2022-09-24T01:01:00.590Z,14.50
2022-09-24T01:03:41.040Z,15.80
2022-09-24T01:06:14.633Z,15.80
2022-09-24T01:08:47.493Z,14.90
2022-09-24T01:11:37.279Z,14.90
2022-09-24T01:14:45.176Z,15.50
2022-09-24T01:17:28.858Z,14.30
2022-09-24T01:20:29.957Z,14.30
2022-09-24T01:23:29.770Z,15.20
2022-09-24T01:26:20.179Z,15.00
2022-09-24T01:29:06.475Z,14.40
2022-09-24T01:31:46.941Z,15.60
2022-09-24T01:34:29.577Z,15.10
2022-09-24T01:37:03.722Z,14.80
2022-09-24T01:39:38.015Z,15.90
2022-09-24T01:42:12.210Z,15.10
2022-09-24T01:44:45.369Z,14.40
2022-09-24T01:47:23.556Z,14.70
2022-09-24T01:49:55.542Z,15.30
2022-09-24T01:52:32.921Z,15.30
2022-09-24T01:55:07.703Z,15.40
2022-09-24T01:57:44.947Z,15.90
2022-09-24T02:00:18.994Z,15.30
2022-09-24T02:02:55.838Z,16.20
2022-09-24T02:05:33.354Z,15.10
2022-09-24T02:08:10.658Z,15.10
2022-09-24T02:10:47.651Z,15.30
2022-09-24T02:13:24.825Z,15.00
2022-09-24T02:16:00.807Z,15.10
2022-09-24T02:18:37.974Z,15.90
2022-09-24T02:21:14.131Z,16.10
2022-09-24T02:23:49.063Z,14.70
2022-09-24T02:26:21.131Z,16.50
2022-09-24T02:28:53.563Z,16.00
2022-09-24T02:31:30.318Z,14.80
2022-09-24T02:34:23.729Z,15.90
2022-09-24T02:37:00.285Z,15.50
2022-09-24T02:39:32.782Z,15.20
2022-09-24T02:42:06.545Z,15.90
2022-09-24T02:44:38.676Z,15.20
2022-09-24T02:47:10.718Z,15.50
2022-09-24T02:49:42.674Z,15.50
2022-09-24T02:52:14.623Z,15.60
2022-09-24T02:54:46.395Z,15.40
2022-09-24T02:57:18.647Z,15.30
2022-09-24T02:59:50.486Z,15.90
2022-09-24T03:02:22.472Z,15.60
2022-09-24T03:04:55.834Z,16.30
2022-09-24T03:07:27.783Z,16.90
2022-09-24T03:09:59.646Z,15.70
2022-09-24T03:12:31.474Z,15.40
2022-09-24T03:15:03.329Z,18.20
2022-09-24T03:17:35.216Z,16.90
2022-09-24T03:20:08.497Z,16.00
2022-09-24T03:22:40.580Z,16.20
2022-09-24T03:25:13.191Z,15.50
2022-09-24T03:27:45.223Z,15.50
2022-09-24T03:30:35.041Z,13.80
2022-09-24T03:33:07.099Z,14.90
2022-09-24T03:35:39.064Z,14.30
2022-09-24T03:38:10.994Z,14.50
2022-09-24T03:40:42.897Z,14.40
2022-09-24T03:43:15.017Z,13.00
2022-09-24T03:45:46.979Z,13.40
2022-09-24T03:48:19.816Z,13.80
2022-09-24T03:50:52.030Z,13.90
2022-09-24T03:53:24.504Z,14.00
2022-09-24T03:55:59.848Z,13.20
2022-09-24T03:58:34.684Z,13.60
2022-09-24T04:01:07.413Z,13.10
2022-09-24T04:03:40.673Z,12.80
2022-09-24T04:06:12.671Z,12.30
2022-09-24T04:08:44.567Z,12.30
2022-09-24T04:11:16.715Z,13.70
2022-09-24T04:13:48.939Z,12.30
2022-09-24T04:16:23.823Z,13.20
2022-09-24T04:18:56.362Z,12.10
2022-09-24T04:21:28.315Z,12.50
2022-09-24T04:24:00.393Z,13.10
2022-09-24T04:26:33.383Z,13.20
2022-09-24T04:29:06.860Z,13.70
2022-09-24T04:31:39.875Z,13.20
2022-09-24T04:34:12.648Z,13.20
2022-09-24T04:36:44.484Z,13.30
2022-09-24T04:39:16.946Z,13.40
2022-09-24T04:41:48.854Z,12.90
2022-09-24T04:44:21.026Z,12.80
2022-09-24T04:46:53.157Z,13.40
2022-09-24T04:49:25.215Z,13.80
2022-09-24T04:51:58.312Z,13.30
2022-09-24T04:54:30.542Z,13.40
2022-09-24T04:57:05.629Z,14.40
2022-09-24T04:59:39.995Z,12.40
2022-09-24T05:02:12.122Z,12.90
2022-09-24T05:04:44.772Z,12.60
2022-09-24T05:07:17.141Z,12.50
2022-09-24T05:09:49.478Z,12.50
2022-09-24T05:12:21.985Z,11.60
2022-09-24T05:14:54.027Z,12.80
2022-09-24T05:17:26.171Z,12.10
2022-09-24T05:19:59.713Z,11.80
2022-09-24T05:22:31.947Z,13.00
2022-09-24T05:25:04.107Z,12.10
2022-09-24T05:27:36.500Z,12.30
2022-09-24T05:30:10.701Z,11.70
2022-09-24T05:32:43.364Z,12.40
2022-09-24T05:35:15.575Z,12.10
2022-09-24T05:37:49.818Z,13.30
2022-09-24T05:40:40.055Z,12.40
2022-09-24T05:43:12.041Z,12.40
2022-09-24T05:45:45.541Z,12.80
2022-09-24T05:48:17.630Z,12.50
2022-09-24T05:50:49.496Z,11.70
2022-09-24T05:53:21.560Z,12.00
2022-09-24T05:55:53.616Z,12.50
2022-09-24T05:58:26.421Z,12.20
2022-09-24T06:00:59.682Z,12.60
2022-09-24T06:03:31.973Z,12.40
2022-09-24T06:06:04.388Z,12.40
2022-09-24T06:08:36.553Z,13.00
2022-09-24T06:11:09.642Z,13.20
2022-09-24T06:13:41.467Z,12.40
2022-09-24T06:16:14.210Z,11.40
2022-09-24T06:18:46.495Z,12.20
2022-09-24T06:21:19.126Z,12.50
2022-09-24T06:23:51.398Z,12.10
2022-09-24T06:26:26.387Z,12.10
2022-09-24T06:29:03.716Z,12.00
2022-09-24T06:31:37.025Z,12.30
2022-09-24T06:34:09.376Z,13.10
2022-09-24T06:36:41.340Z,11.90
2022-09-24T06:39:13.263Z,12.10
2022-09-24T06:41:45.098Z,11.70
2022-09-24T06:44:21.225Z,11.70
2022-09-24T06:46:53.763Z,13.50
2022-09-24T06:49:27.994Z,13.70
2022-09-24T06:52:04.621Z,25.70
2022-09-24T06:54:36.889Z,33.50
2022-09-24T06:57:09.969Z,17.40
2022-09-24T06:59:41.848Z,18.60
2022-09-24T07:02:13.820Z,48.00
2022-09-24T07:04:45.764Z,54.00
2022-09-24T07:07:34.369Z,41.70
2022-09-24T07:10:08.759Z,16.90
2022-09-24T07:12:42.630Z,14.50
2022-09-24T07:15:14.808Z,15.90
2022-09-24T07:17:46.774Z,19.80
2022-09-24T07:20:19.284Z,18.20
2022-09-24T07:22:51.247Z,13.70
2022-09-24T07:25:23.551Z,14.30
2022-09-24T07:27:55.437Z,15.00
2022-09-24T07:30:27.399Z,12.30
2022-09-24T07:33:00.129Z,14.80
2022-09-24T07:35:32.731Z,12.00
2022-09-24T07:38:06.394Z,11.70
2022-09-24T07:40:38.434Z,10.90
2022-09-24T07:43:14.111Z,12.40
2022-09-24T07:45:46.646Z,11.60
2022-09-24T07:48:19.319Z,12.00
2022-09-24T07:50:51.485Z,12.00
2022-09-24T07:53:23.852Z,11.50
2022-09-24T07:55:59.540Z,12.50
2022-09-24T07:58:32.079Z,13.70
2022-09-24T08:01:04.036Z,12.70
2022-09-24T08:03:36.827Z,11.70
2022-09-24T08:06:10.716Z,12.30
2022-09-24T08:08:43.695Z,12.20
2022-09-24T08:11:17.261Z,11.10
2022-09-24T08:13:49.265Z,10.20
2022-09-24T08:16:22.443Z,12.00
2022-09-24T08:18:54.899Z,12.70
2022-09-24T08:21:28.727Z,21.70
2022-09-24T08:24:01.061Z,12.50
2022-09-24T08:26:32.994Z,11.20
2022-09-24T08:29:05.790Z,12.30
2022-09-24T08:31:38.525Z,12.30
2022-09-24T08:34:10.845Z,27.30
2022-09-24T08:36:43.452Z,31.50
2022-09-24T08:39:16.034Z,30.10
2022-09-24T08:42:00.550Z,32.70
2022-09-24T08:44:55.459Z,14.10
2022-09-24T08:47:38.694Z,11.40
2022-09-24T08:50:17.503Z,15.80
2022-09-24T08:53:02.504Z,13.00
2022-09-24T08:55:39.385Z,15.30
2022-09-24T08:58:33.306Z,12.50
2022-09-24T09:01:16.435Z,10.70
2022-09-24T09:03:56.295Z,9.20
2022-09-24T09:06:47.442Z,11.40
2022-09-24T09:09:21.594Z,12.20
2022-09-24T09:12:06.927Z,10.90
2022-09-24T09:14:52.123Z,13.40
2022-09-24T09:17:33.565Z,14.80
2022-09-24T09:20:13.106Z,12.80
2022-09-24T09:22:49.016Z,10.80
2022-09-24T09:25:24.957Z,9.50
2022-09-24T09:28:02.335Z,10.00
2022-09-24T09:30:43.799Z,13.20
2022-09-24T09:33:29.281Z,10.80
2022-09-24T09:36:22.592Z,10.00
2022-09-24T09:39:05.959Z,9.00
2022-09-24T09:41:42.939Z,9.30
2022-09-24T09:44:22.325Z,9.60
2022-09-24T09:47:01.725Z,10.00
2022-09-24T09:49:38.682Z,10.00
2022-09-24T09:52:17.352Z,8.70
2022-09-24T09:54:49.917Z,9.20
2022-09-24T09:57:24.313Z,10.30
2022-09-24T09:59:57.157Z,11.00
2022-09-24T10:02:31.851Z,7.90
2022-09-24T10:05:06.621Z,7.80
2022-09-24T10:07:47.685Z,8.70
2022-09-24T10:10:24.736Z,12.00
2022-09-24T10:13:08.087Z,10.00
2022-09-24T10:15:52.225Z,6.80
2022-09-24T10:18:32.934Z,6.20
2022-09-24T10:21:12.111Z,6.00
2022-09-24T10:23:48.855Z,6.00
2022-09-24T10:26:20.754Z,6.20
2022-09-24T10:29:11.687Z,5.90
2022-09-24T10:31:45.873Z,5.80
2022-09-24T10:34:28.287Z,6.00
2022-09-24T10:37:13.926Z,8.60
2022-09-24T10:39:45.966Z,9.10
2022-09-24T10:42:30.486Z,8.40
2022-09-24T10:45:04.702Z,6.70
2022-09-24T10:47:45.756Z,6.20
2022-09-24T10:50:30.825Z,6.20
2022-09-24T10:53:09.055Z,6.00
2022-09-24T10:55:49.783Z,12.00
2022-09-24T10:58:43.376Z,58.60
2022-09-24T11:01:20.497Z,34.40
2022-09-24T11:04:36.390Z,12.80
2022-09-24T11:07:35.346Z,42.00
2022-09-24T11:10:22.126Z,16.20
2022-09-24T11:13:07.465Z,8.10
2022-09-24T11:15:58.928Z,6.80
2022-09-24T11:18:39.068Z,7.60
2022-09-24T11:21:23.396Z,10.60
2022-09-24T11:24:18.834Z,8.80
2022-09-24T11:27:01.611Z,9.10
2022-09-24T11:30:00.383Z,7.10
2022-09-24T11:32:42.642Z,15.90
2022-09-24T11:35:36.600Z,6.40
2022-09-24T11:38:14.888Z,4.50
2022-09-24T11:41:01.908Z,2.80
2022-09-24T11:43:54.028Z,3.00
2022-09-24T11:46:47.447Z,6.00
2022-09-24T11:49:34.220Z,12.50
2022-09-24T11:52:11.671Z,4.60
2022-09-24T11:54:50.492Z,2.60
2022-09-24T11:57:27.163Z,2.60
2022-09-24T12:00:07.460Z,2.80
2022-09-24T12:02:45.717Z,4.40
2022-09-24T12:05:26.627Z,7.30
2022-09-24T12:08:04.233Z,8.70
2022-09-24T12:10:43.422Z,3.00
2022-09-24T12:13:21.488Z,2.40
2022-09-24T12:15:57.410Z,4.40
2022-09-24T12:18:33.633Z,4.40
2022-09-24T12:21:11.016Z,5.00
2022-09-24T12:23:46.554Z,2.70
2022-09-24T12:26:22.224Z,2.90
2022-09-24T12:29:17.413Z,2.90
2022-09-24T12:32:16.106Z,2.70
2022-09-24T12:34:55.745Z,2.50
2022-09-24T12:37:33.242Z,2.10
2022-09-24T12:40:19.353Z,3.20
2022-09-24T12:42:56.104Z,3.20
2022-09-24T12:45:28.785Z,3.00
2022-09-24T12:48:02.943Z,2.70
2022-09-24T12:50:40.452Z,2.90
2022-09-24T12:53:25.534Z,3.20
2022-09-24T12:56:04.373Z,2.40
2022-09-24T12:58:42.487Z,4.00
2022-09-24T13:01:30.566Z,2.80
2022-09-24T13:04:26.073Z,2.70
2022-09-24T13:06:58.444Z,3.10
2022-09-24T13:09:37.267Z,3.00
2022-09-24T13:12:23.319Z,3.30
2022-09-24T13:15:01.528Z,3.40
2022-09-24T13:17:36.009Z,2.80
2022-09-24T13:20:19.028Z,3.00
2022-09-24T13:22:59.752Z,2.50
2022-09-24T13:25:31.779Z,2.40
2022-09-24T13:28:19.914Z,2.20
2022-09-24T13:30:59.473Z,2.00
2022-09-24T13:33:38.036Z,2.90
2022-09-24T13:36:18.170Z,2.90
2022-09-24T13:38:57.609Z,2.40
2022-09-24T13:41:37.030Z,2.60
2022-09-24T13:44:17.197Z,2.70
2022-09-24T13:46:53.313Z,3.10
2022-09-24T13:49:27.906Z,3.10
2022-09-24T13:52:13.155Z,2.80
2022-09-24T13:54:53.486Z,2.20
2022-09-24T13:57:27.532Z,2.90
2022-09-24T14:00:20.046Z,2.40
2022-09-24T14:03:03.002Z,2.50
2022-09-24T14:05:38.530Z,2.90
2022-09-24T14:08:14.213Z,2.50
2022-09-24T14:10:48.632Z,2.50
2022-09-24T14:13:23.213Z,2.10
2022-09-24T14:15:59.137Z,2.20
2022-09-24T14:18:31.745Z,2.30
2022-09-24T14:21:10.475Z,2.50
2022-09-24T14:23:48.538Z,2.10
2022-09-24T14:26:28.769Z,2.00
2022-09-24T14:29:07.079Z,2.30
2022-09-24T14:31:48.222Z,5.00
2022-09-24T14:34:34.255Z,5.60
2022-09-24T14:37:13.344Z,3.00
2022-09-24T14:39:47.658Z,3.40
2022-09-24T14:42:27.604Z,2.80
2022-09-24T14:45:00.709Z,4.80
2022-09-24T15:12:30.817Z,18.60
2022-09-24T15:15:02.187Z,17.70
2022-09-24T15:17:32.920Z,12.20
2022-09-24T15:20:04.300Z,16.40
2022-09-24T15:22:32.938Z,13.80
2022-09-24T15:25:02.546Z,14.70
2022-09-24T15:27:33.855Z,21.30
2022-09-24T15:30:04.635Z,17.70
2022-09-24T15:32:36.102Z,19.00
2022-09-24T15:35:08.923Z,14.20
2022-09-24T15:37:40.358Z,14.90
2022-09-24T15:40:19.925Z,13.30
2022-09-24T15:42:49.021Z,10.90
2022-09-24T15:45:20.988Z,13.60
2022-09-24T15:47:50.279Z,18.50
2022-09-24T15:50:20.556Z,13.00
2022-09-24T15:52:53.360Z,11.10
2022-09-24T15:55:23.626Z,7.60
2022-09-24T15:57:52.722Z,11.70
2022-09-24T16:00:23.334Z,9.40
2022-09-24T16:02:54.724Z,8.10
2022-09-24T16:05:24.157Z,10.30
2022-09-24T16:07:52.780Z,9.80
2022-09-24T16:10:21.525Z,10.40
2022-09-24T16:12:50.182Z,15.30
2022-09-24T16:15:19.070Z,10.00
2022-09-24T16:17:49.566Z,12.50
2022-09-24T16:20:18.763Z,16.30
2022-09-24T16:22:47.457Z,17.70
2022-09-24T16:25:19.357Z,13.10
2022-09-24T16:27:47.989Z,12.60
2022-09-24T16:30:17.194Z,17.90
2022-09-24T16:32:46.586Z,17.90
2022-09-24T16:35:18.429Z,16.00
2022-09-24T16:38:19.005Z,19.70
2022-09-24T16:41:00.273Z,11.30
2022-09-24T16:43:29.100Z,11.60
2022-09-24T16:46:02.904Z,9.80
2022-09-24T16:48:32.127Z,7.20
2022-09-24T16:51:05.037Z,6.80
2022-09-24T16:53:34.349Z,6.80
2022-09-24T16:56:04.817Z,8.50
2022-09-24T16:58:34.341Z,18.90
2022-09-24T17:01:06.149Z,42.40
2022-09-24T17:03:37.099Z,56.30
2022-09-24T17:06:07.190Z,25.00
2022-09-24T17:09:14.484Z,17.30
2022-09-24T17:11:46.102Z,18.60
2022-09-24T17:14:17.978Z,17.10
2022-09-24T17:16:49.082Z,20.50
2022-09-24T17:19:17.739Z,60.10
2022-09-24T17:21:49.737Z,29.10
2022-09-24T17:24:22.004Z,44.90
2022-09-24T17:26:51.527Z,53.30
2022-09-24T17:29:28.866Z,36.30
2022-09-24T17:32:00.725Z,23.40
2022-09-24T17:34:29.460Z,32.00
2022-09-24T17:36:59.222Z,27.80
2022-09-24T17:39:30.106Z,29.70
2022-09-24T17:41:58.636Z,26.80
2022-09-24T17:44:27.250Z,30.30
2022-09-24T17:46:56.594Z,26.60
2022-09-24T17:49:25.560Z,17.80
2022-09-24T17:51:54.074Z,18.00
2022-09-24T17:54:23.728Z,16.60
2022-09-24T17:56:52.527Z,13.20
2022-09-24T17:59:25.729Z,19.00
2022-09-24T18:01:55.431Z,16.70
2022-09-24T18:04:27.648Z,18.40
2022-09-24T18:06:56.346Z,19.90
2022-09-24T18:09:25.307Z,15.30
2022-09-24T18:11:53.879Z,20.50
2022-09-24T18:14:28.538Z,14.50
2022-09-24T18:16:59.500Z,11.20
2022-09-24T18:19:28.762Z,12.40
2022-09-24T18:21:59.408Z,12.80
2022-09-24T18:24:28.424Z,10.90
2022-09-24T18:26:56.874Z,12.50
2022-09-24T18:29:25.608Z,9.90
2022-09-24T18:33:18.213Z,9.70
2022-09-24T18:35:25.113Z,9.50
2022-09-24T18:50:31.303Z,9.10
2022-09-24T18:53:00.019Z,8.60
2022-09-24T18:55:29.868Z,8.60
2022-09-24T18:57:59.586Z,8.80
2022-09-24T19:00:49.020Z,8.50
2022-09-24T19:03:18.527Z,8.70
2022-09-24T19:05:51.254Z,8.70
2022-09-24T19:08:20.724Z,8.50
2022-09-24T19:10:52.751Z,8.20
2022-09-24T19:13:26.140Z,9.20
2022-09-24T19:15:55.216Z,9.60
2022-09-24T19:18:23.909Z,9.20
2022-09-24T19:20:52.815Z,10.00
2022-09-24T19:23:22.648Z,9.90
2022-09-24T19:25:51.455Z,10.10
2022-09-24T19:28:20.197Z,9.80
2022-09-24T19:30:51.225Z,9.60
2022-09-24T19:33:20.027Z,9.90
2022-09-24T19:35:55.253Z,9.20
2022-09-24T19:38:25.206Z,9.30
2022-09-24T19:40:58.670Z,9.90
2022-09-24T19:43:28.254Z,9.90
2022-09-24T19:45:58.989Z,10.40
2022-09-24T19:48:29.460Z,10.40
2022-09-24T19:51:08.089Z,10.00
2022-09-24T19:53:37.017Z,11.00
2022-09-24T19:56:10.548Z,16.50
2022-09-24T19:58:39.229Z,17.90
2022-09-24T20:01:16.176Z,21.90
2022-09-24T20:03:46.638Z,19.80
2022-09-24T20:06:17.660Z,19.80
2022-09-24T20:08:46.718Z,16.00
2022-09-24T20:11:19.771Z,14.10
2022-09-24T20:13:50.154Z,12.40
2022-09-24T20:16:20.331Z,12.60
2022-09-24T20:18:50.374Z,13.50
2022-09-24T20:21:19.439Z,12.10
2022-09-24T20:23:48.839Z,12.60
2022-09-24T20:26:36.010Z,11.70
2022-09-24T20:29:06.749Z,12.70
2022-09-24T20:31:35.445Z,13.00
2022-09-24T20:34:04.119Z,12.10
2022-09-24T20:36:32.827Z,12.00
2022-09-24T20:39:03.087Z,12.20
2022-09-24T20:41:31.676Z,12.20
2022-09-24T20:44:00.255Z,11.60
2022-09-24T20:46:29.312Z,12.20
2022-09-24T20:48:59.893Z,12.60
2022-09-24T20:51:30.626Z,11.50
2022-09-24T20:54:00.128Z,12.10
2022-09-24T20:56:30.252Z,11.90
2022-09-24T20:59:00.354Z,12.30
2022-09-24T21:01:29.043Z,12.30
2022-09-24T21:03:57.801Z,11.80
2022-09-24T21:06:26.452Z,11.20
2022-09-24T21:08:57.753Z,12.20
2022-09-24T21:11:28.047Z,12.30
2022-09-24T21:13:59.981Z,12.40
2022-09-24T21:16:30.747Z,12.20
2022-09-24T21:19:00.637Z,12.40
2022-09-24T21:21:31.226Z,13.50
2022-09-24T21:24:01.300Z,12.40
2022-09-24T21:26:31.170Z,11.50
2022-09-24T21:29:02.591Z,12.10
2022-09-24T21:31:33.638Z,11.90
2022-09-24T21:34:04.943Z,12.40
2022-09-24T21:36:42.874Z,12.80
2022-09-24T21:39:16.452Z,12.70
2022-09-24T21:41:49.226Z,12.50
2022-09-24T21:44:18.769Z,11.50
2022-09-24T21:46:51.682Z,12.20
2022-09-24T21:49:20.685Z,12.50
2022-09-24T21:51:50.102Z,12.40
2022-09-24T21:54:19.189Z,12.00
2022-09-24T21:56:48.176Z,11.70
2022-09-24T21:59:35.211Z,12.20
2022-09-24T22:02:04.742Z,12.50
2022-09-24T22:04:36.886Z,11.70
2022-09-24T22:07:05.700Z,12.10
2022-09-24T22:09:34.576Z,12.30
2022-09-24T22:12:04.381Z,11.60
2022-09-24T22:14:34.128Z,11.70
2022-09-24T22:17:03.371Z,12.10
2022-09-24T22:19:32.028Z,11.70
2022-09-24T22:22:00.455Z,11.50
2022-09-24T22:24:29.365Z,11.20
2022-09-24T22:26:58.471Z,11.90
2022-09-24T22:29:27.118Z,11.40
2022-09-24T22:31:55.598Z,12.20
2022-09-24T22:34:42.730Z,11.80
2022-09-24T22:37:11.414Z,12.10
2022-09-24T22:39:39.885Z,12.20
2022-09-24T22:42:08.558Z,12.50
2022-09-24T22:44:36.997Z,12.00
2022-09-24T22:47:05.688Z,13.20
2022-09-24T22:49:36.553Z,13.40
2022-09-24T22:52:05.098Z,12.90
2022-09-24T22:54:33.748Z,14.90
2022-09-24T22:57:02.206Z,14.30
2022-09-24T22:59:31.032Z,13.80
2022-09-24T23:01:59.427Z,13.50
2022-09-24T23:04:27.944Z,13.30
2022-09-24T23:06:56.431Z,12.80
2022-09-24T23:09:25.790Z,12.10
2022-09-24T23:11:56.012Z,12.10
2022-09-24T23:14:24.560Z,12.90
2022-09-24T23:16:53.020Z,12.90
2022-09-24T23:19:21.499Z,14.00
2022-09-24T23:21:51.230Z,12.20
2022-09-24T23:24:21.308Z,12.50
2022-09-24T23:26:50.520Z,11.60
2022-09-24T23:29:18.973Z,10.60
2022-09-24T23:31:47.586Z,12.00
2022-09-24T23:34:16.080Z,11.40
2022-09-24T23:36:45.605Z,11.70
2022-09-24T23:39:14.383Z,11.40
2022-09-24T23:41:44.000Z,10.80
2022-09-24T23:44:12.986Z,11.50
2022-09-24T23:46:41.496Z,11.60
2022-09-24T23:49:10.203Z,10.80
2022-09-24T23:51:38.628Z,11.10
2022-09-24T23:54:07.393Z,10.50
2022-09-24T23:56:35.881Z,11.00
2022-09-24T23:59:04.783Z,10.70
